Portada
METAR-TAF:

METAR-TAF

Aeroports :

Nancy, França

latitud: 48-35N, longitud: 005-58E, altitud: 336 m

Observació

L'informe es va fer fa 33 minuts, a les 09:30 UTC
Vent 3 kt del Nord, variant entre Oest/Nord-Oest i Est
Temperatura 20°C
Humitat 56%
Pressió 1018 hPa
Visibilitat 10 km o més
sense núvols per sota de 1500 mi sense presència de cumulonimbus.

METAR: LFSO 160930Z AUTO 35003KT 290V080 CAVOK 20/11 Q1018 NOSIG

Hora: 12:03 (10:03 UTC)

Pronòstic

L'informe es va fer fa 2 hores i 3 minuts, a les 08:00 UTC
Pronòstic vàlid del 16 a les 09 UTC al 17 a les 09 UTC
Vent 5 kt del Nord
Visibilitat 10 km o més
sense núvols per sota de 1500 mi sense presència de cumulonimbus.

TAF: LFSO 160800Z 1609/1709 36005KT CAVOK

Observacions i pronòstics meteorològics de més de 4000 aeroports (METAR i TAF).

Les estacions disponibles són els punts grocs i vermells al mapa.

Posi el ratolí al punt desitjat per veure el nom de l'estació.

Feu clic per veure les observacions i els pronòstics meteorològics.

Per canviar el mapa: feu clic els botons verds amb una creu de color negre per apropar; al botó verd amb un guió per allunyar la imatge; o en les fletxes verdes per a mapes adjacents.


METAR-TAF: